Bookmark and Share
Track history (hours):
 

Dart

Last reported at 2014-Apr-18 07:28 UTC. Time now 2014-Apr-18 08:15 UTC.
Position N 70°37' E 023°36'.

Length 66 m; draft 4 m.

Type: Tanker. MMSI: 219416000.

NotesDate/timePositionNaut miles runAvg speedWind from/ knotsBaromVisibWave heightAir tempDewpointWater temp
2014-Apr-18 07:28N 70°37' E 023°36'1 1.2
2014-Apr-18 06:33N 70°38' E 023°39'0 0.0
2014-Apr-18 05:33N 70°38' E 023°39'0 0.0
2014-Apr-18 04:15N 70°38' E 023°39'0 0.0
2014-Apr-18 03:32N 70°38' E 023°39'7 6.4
2014-Apr-18 02:26N 70°37' E 023°18'10210.3
2014-Apr-17 16:31N 69°43' E 019°03'158 9.8
2014-Apr-17 00:29N 67°44' E 014°17'9 9.8
2014-Apr-16 23:34N 67°35' E 014°19'1010.4
2014-Apr-16 22:33N 67°25' E 014°27'1111.4
2014-Apr-16 21:33N 67°15' E 014°11'1211.6
2014-Apr-16 20:33N 67°05' E 013°56'1111.0
2014-Apr-16 19:32N 66°58' E 013°33'12 8.0
2014-Apr-16 18:04N 66°47' E 013°19'610.8
2014-Apr-16 17:33N 66°43' E 013°11'1110.7
2014-Apr-16 16:28N 66°32' E 012°59'1111.3
2014-Apr-16 15:30N 66°22' E 012°58'  
2014-Apr-12 04:17N 59°25' E 005°14'0 0.0
2014-Apr-12 03:29N 59°25' E 005°14'0 0.0
2014-Apr-12 02:32N 59°25' E 005°14'0 0.0
2014-Apr-12 01:11N 59°25' E 005°14'0 0.0
2014-Apr-12 00:29N 59°25' E 005°14'0 0.0
2014-Apr-11 23:20N 59°25' E 005°14'0 0.0
2014-Apr-11 22:23N 59°25' E 005°14'0 0.0
2014-Apr-11 21:23N 59°25' E 005°14'1 0.7
2014-Apr-11 19:13N 59°24' E 005°16'7 7.0
2014-Apr-11 18:17N 59°17' E 005°20'7 9.6
2014-Apr-11 17:33N 59°10' E 005°21'9 8.6
2014-Apr-11 16:33N 59°05' E 005°34'6 5.5
2014-Apr-11 15:31N 58°60' E 005°40'0 0.0
2014-Apr-11 14:31N 58°60' E 005°40'0 0.0
2014-Apr-11 13:31N 58°60' E 005°40'0 0.0
2014-Apr-11 12:31N 58°60' E 005°40'0 0.0
2014-Apr-11 11:31N 58°60' E 005°40'0 0.0
2014-Apr-11 10:31N 58°60' E 005°40'0 0.0
2014-Apr-11 09:31N 58°60' E 005°40'0 0.0
2014-Apr-11 08:31N 58°60' E 005°40'1 1.2
2014-Apr-11 07:33N 59°01' E 005°42'6 6.1
2014-Apr-11 06:33N 58°55' E 005°46'2 1.6
2014-Apr-11 05:33N 58°53' E 005°45'0 0.0
2014-Apr-11 04:33N 58°53' E 005°45'0 0.0
2014-Apr-11 03:33N 58°53' E 005°45'0 0.0
2014-Apr-11 02:33N 58°53' E 005°45'0 0.0
2014-Apr-11 01:33N 58°53' E 005°45'0 0.0
2014-Apr-11 00:33N 58°53' E 005°45'0 0.0
2014-Apr-10 23:33N 58°53' E 005°45'0 0.0
2014-Apr-10 22:33N 58°53' E 005°45'0 0.0
2014-Apr-10 21:33N 58°53' E 005°45'0 0.0
2014-Apr-10 20:33N 58°53' E 005°45'0 0.0
2014-Apr-10 19:33N 58°53' E 005°45'0 0.0
2014-Apr-10 18:33N 58°53' E 005°45'0 0.0
2014-Apr-10 17:33N 58°53' E 005°45'0 0.0
2014-Apr-10 16:33N 58°53' E 005°45'0 0.0
2014-Apr-10 15:33N 58°53' E 005°45'0 0.0
2014-Apr-10 14:33N 58°53' E 005°45'0 0.0
2014-Apr-10 13:33N 58°53' E 005°45'0 0.0
2014-Apr-10 12:33N 58°53' E 005°45'0 0.0
2014-Apr-10 11:33N 58°53' E 005°45'7 7.3
2014-Apr-10 10:33N 59°00' E 005°48'8 7.6
2014-Apr-10 09:33N 59°03' E 005°34'8 8.0
2014-Apr-10 08:33N 59°09' E 005°22'6 5.6
2014-Apr-10 07:33N 59°14' E 005°20'7 7.3
2014-Apr-10 06:33N 59°21' E 005°19'8 8.4
2014-Apr-10 05:33N 59°29' E 005°13'180 7.2
2014-Apr-09 04:33N 62°28' E 006°03'9 9.0
2014-Apr-09 03:33N 62°35' E 006°15'  

Dump ship's entire track history

sailing weather and tide predictions

Dart — OUOV2 — position and weather